sensor_id;sensor_type;location;lat;lon;timestamp;temperature;humidity
66128;DHT22;52925;52.436;-1.952;2022-10-19T00:00:32;14.90;68.60
66128;DHT22;52925;52.436;-1.952;2022-10-19T00:01:53;14.90;68.60
66128;DHT22;52925;52.436;-1.952;2022-10-19T00:03:13;14.90;68.70
66128;DHT22;52925;52.436;-1.952;2022-10-19T00:04:34;14.90;68.80
66128;DHT22;52925;52.436;-1.952;2022-10-19T00:05:56;14.90;68.80
66128;DHT22;52925;52.436;-1.952;2022-10-19T00:07:16;14.90;68.90
66128;DHT22;52925;52.436;-1.952;2022-10-19T00:08:37;14.90;68.90
66128;DHT22;52925;52.436;-1.952;2022-10-19T00:09:57;14.80;68.80
66128;DHT22;52925;52.436;-1.952;2022-10-19T00:11:18;14.90;68.90
66128;DHT22;52925;52.436;-1.952;2022-10-19T00:12:38;14.90;68.90
66128;DHT22;52925;52.436;-1.952;2022-10-19T00:13:59;14.90;68.80
66128;DHT22;52925;52.436;-1.952;2022-10-19T00:15:19;14.90;68.90
66128;DHT22;52925;52.436;-1.952;2022-10-19T00:16:42;14.90;68.90
66128;DHT22;52925;52.436;-1.952;2022-10-19T00:18:02;14.80;68.80
66128;DHT22;52925;52.436;-1.952;2022-10-19T00:19:25;14.90;68.80
66128;DHT22;52925;52.436;-1.952;2022-10-19T00:20:46;14.80;68.80
66128;DHT22;52925;52.436;-1.952;2022-10-19T00:22:07;14.80;68.80
66128;DHT22;52925;52.436;-1.952;2022-10-19T00:23:28;14.80;68.80
66128;DHT22;52925;52.436;-1.952;2022-10-19T00:24:49;14.90;68.90
66128;DHT22;52925;52.436;-1.952;2022-10-19T00:26:11;14.90;68.90
66128;DHT22;52925;52.436;-1.952;2022-10-19T00:27:31;14.90;68.80
66128;DHT22;52925;52.436;-1.952;2022-10-19T00:28:52;14.90;68.80
66128;DHT22;52925;52.436;-1.952;2022-10-19T00:30:13;14.90;68.80
66128;DHT22;52925;52.436;-1.952;2022-10-19T00:31:34;14.80;68.70
66128;DHT22;52925;52.436;-1.952;2022-10-19T00:32:53;14.90;68.90
66128;DHT22;52925;52.436;-1.952;2022-10-19T00:34:14;14.90;68.90
66128;DHT22;52925;52.436;-1.952;2022-10-19T00:35:33;14.90;68.90
66128;DHT22;52925;52.436;-1.952;2022-10-19T00:36:59;14.80;68.80
66128;DHT22;52925;52.436;-1.952;2022-10-19T00:38:21;14.90;68.80
66128;DHT22;52925;52.436;-1.952;2022-10-19T00:39:42;14.90;68.80
66128;DHT22;52925;52.436;-1.952;2022-10-19T00:41:01;14.90;68.80
66128;DHT22;52925;52.436;-1.952;2022-10-19T00:42:22;14.80;68.70
66128;DHT22;52925;52.436;-1.952;2022-10-19T00:43:55;14.90;68.80
66128;DHT22;52925;52.436;-1.952;2022-10-19T00:45:16;14.80;68.80
66128;DHT22;52925;52.436;-1.952;2022-10-19T00:46:39;14.80;69.60
66128;DHT22;52925;52.436;-1.952;2022-10-19T00:47:59;14.80;68.90
66128;DHT22;52925;52.436;-1.952;2022-10-19T00:49:21;14.80;68.80
66128;DHT22;52925;52.436;-1.952;2022-10-19T00:50:42;14.80;68.90
66128;DHT22;52925;52.436;-1.952;2022-10-19T00:52:06;14.80;68.90
66128;DHT22;52925;52.436;-1.952;2022-10-19T00:53:30;14.80;69.00
66128;DHT22;52925;52.436;-1.952;2022-10-19T00:54:50;14.80;69.70
66128;DHT22;52925;52.436;-1.952;2022-10-19T00:56:13;14.80;69.00
66128;DHT22;52925;52.436;-1.952;2022-10-19T00:57:34;14.80;69.00
66128;DHT22;52925;52.436;-1.952;2022-10-19T00:58:55;14.80;69.00
66128;DHT22;52925;52.436;-1.952;2022-10-19T01:00:15;14.80;68.90
66128;DHT22;52925;52.436;-1.952;2022-10-19T01:01:35;14.80;68.90
66128;DHT22;52925;52.436;-1.952;2022-10-19T01:02:55;14.80;69.00
66128;DHT22;52925;52.436;-1.952;2022-10-19T01:04:17;14.80;69.00
66128;DHT22;52925;52.436;-1.952;2022-10-19T01:05:39;14.80;69.00
66128;DHT22;52925;52.436;-1.952;2022-10-19T01:07:01;14.80;69.00
66128;DHT22;52925;52.436;-1.952;2022-10-19T01:08:22;14.80;69.00
66128;DHT22;52925;52.436;-1.952;2022-10-19T01:09:44;14.80;69.00
66128;DHT22;52925;52.436;-1.952;2022-10-19T01:11:16;14.70;69.00
66128;DHT22;52925;52.436;-1.952;2022-10-19T01:12:57;14.80;69.10
66128;DHT22;52925;52.436;-1.952;2022-10-19T01:14:31;14.70;69.10
66128;DHT22;52925;52.436;-1.952;2022-10-19T01:15:59;14.70;69.10
66128;DHT22;52925;52.436;-1.952;2022-10-19T01:17:29;14.70;69.10
66128;DHT22;52925;52.436;-1.952;2022-10-19T01:19:02;14.80;69.20
66128;DHT22;52925;52.436;-1.952;2022-10-19T01:22:29;14.80;69.10
66128;DHT22;52925;52.436;-1.952;2022-10-19T01:24:21;14.80;69.20
66128;DHT22;52925;52.436;-1.952;2022-10-19T01:25:54;14.70;69.20
66128;DHT22;52925;52.436;-1.952;2022-10-19T01:29:09;14.70;69.30
66128;DHT22;52925;52.436;-1.952;2022-10-19T01:30:43;14.70;69.30
66128;DHT22;52925;52.436;-1.952;2022-10-19T01:32:10;14.70;69.20
66128;DHT22;52925;52.436;-1.952;2022-10-19T01:33:39;14.70;69.20
66128;DHT22;52925;52.436;-1.952;2022-10-19T01:35:06;14.70;69.20
66128;DHT22;52925;52.436;-1.952;2022-10-19T01:36:38;14.70;69.30
66128;DHT22;52925;52.436;-1.952;2022-10-19T01:38:10;14.70;69.30
66128;DHT22;52925;52.436;-1.952;2022-10-19T01:39:39;14.70;69.20
66128;DHT22;52925;52.436;-1.952;2022-10-19T01:41:13;14.70;69.20
66128;DHT22;52925;52.436;-1.952;2022-10-19T01:42:41;14.70;69.30
66128;DHT22;52925;52.436;-1.952;2022-10-19T01:44:10;14.70;69.30
66128;DHT22;52925;52.436;-1.952;2022-10-19T01:45:35;14.70;69.20
66128;DHT22;52925;52.436;-1.952;2022-10-19T01:47:03;14.70;69.20
66128;DHT22;52925;52.436;-1.952;2022-10-19T01:48:29;14.70;69.20
66128;DHT22;52925;52.436;-1.952;2022-10-19T01:49:54;14.70;69.20
66128;DHT22;52925;52.436;-1.952;2022-10-19T01:51:18;14.70;69.20
66128;DHT22;52925;52.436;-1.952;2022-10-19T01:52:41;14.80;69.20
66128;DHT22;52925;52.436;-1.952;2022-10-19T01:54:05;14.70;69.20
66128;DHT22;52925;52.436;-1.952;2022-10-19T01:55:28;14.70;69.20
66128;DHT22;52925;52.436;-1.952;2022-10-19T01:56:51;14.70;69.20
66128;DHT22;52925;52.436;-1.952;2022-10-19T01:58:16;14.70;69.20
66128;DHT22;52925;52.436;-1.952;2022-10-19T01:59:38;14.80;69.20
66128;DHT22;52925;52.436;-1.952;2022-10-19T02:01:02;14.70;69.20
66128;DHT22;52925;52.436;-1.952;2022-10-19T02:02:27;14.70;69.20
66128;DHT22;52925;52.436;-1.952;2022-10-19T02:03:49;14.70;69.20
66128;DHT22;52925;52.436;-1.952;2022-10-19T02:05:10;14.70;69.20
66128;DHT22;52925;52.436;-1.952;2022-10-19T02:06:32;14.70;69.30
66128;DHT22;52925;52.436;-1.952;2022-10-19T02:07:57;14.70;69.30
66128;DHT22;52925;52.436;-1.952;2022-10-19T02:09:17;14.70;69.30
66128;DHT22;52925;52.436;-1.952;2022-10-19T02:10:41;14.70;69.20
66128;DHT22;52925;52.436;-1.952;2022-10-19T02:12:03;14.70;69.20
66128;DHT22;52925;52.436;-1.952;2022-10-19T02:13:25;14.70;69.20
66128;DHT22;52925;52.436;-1.952;2022-10-19T02:14:50;14.70;69.30
66128;DHT22;52925;52.436;-1.952;2022-10-19T02:16:22;14.70;69.30
66128;DHT22;52925;52.436;-1.952;2022-10-19T02:17:50;14.70;69.30
66128;DHT22;52925;52.436;-1.952;2022-10-19T02:19:14;14.70;69.30
66128;DHT22;52925;52.436;-1.952;2022-10-19T02:20:36;14.70;69.30
66128;DHT22;52925;52.436;-1.952;2022-10-19T02:21:56;14.70;69.20
66128;DHT22;52925;52.436;-1.952;2022-10-19T02:23:20;14.70;69.30
66128;DHT22;52925;52.436;-1.952;2022-10-19T02:24:42;14.70;69.30
66128;DHT22;52925;52.436;-1.952;2022-10-19T02:26:03;14.70;69.20
66128;DHT22;52925;52.436;-1.952;2022-10-19T02:27:23;14.70;69.30
66128;DHT22;52925;52.436;-1.952;2022-10-19T02:28:45;14.70;69.30
66128;DHT22;52925;52.436;-1.952;2022-10-19T02:30:06;14.70;69.30
66128;DHT22;52925;52.436;-1.952;2022-10-19T02:31:27;14.80;69.30
66128;DHT22;52925;52.436;-1.952;2022-10-19T02:32:49;14.70;69.30
66128;DHT22;52925;52.436;-1.952;2022-10-19T02:34:10;14.70;69.40
66128;DHT22;52925;52.436;-1.952;2022-10-19T02:35:30;14.70;69.40
66128;DHT22;52925;52.436;-1.952;2022-10-19T02:36:52;14.70;69.50
66128;DHT22;52925;52.436;-1.952;2022-10-19T02:38:15;14.70;69.50
66128;DHT22;52925;52.436;-1.952;2022-10-19T02:39:37;14.60;69.50
66128;DHT22;52925;52.436;-1.952;2022-10-19T02:41:05;14.70;69.60
66128;DHT22;52925;52.436;-1.952;2022-10-19T02:42:30;14.70;69.50
66128;DHT22;52925;52.436;-1.952;2022-10-19T02:43:55;14.70;69.50
66128;DHT22;52925;52.436;-1.952;2022-10-19T02:45:22;14.70;69.50
66128;DHT22;52925;52.436;-1.952;2022-10-19T02:46:44;14.70;69.60
66128;DHT22;52925;52.436;-1.952;2022-10-19T02:48:10;14.70;69.50
66128;DHT22;52925;52.436;-1.952;2022-10-19T02:49:33;14.70;69.60
66128;DHT22;52925;52.436;-1.952;2022-10-19T02:50:54;14.70;69.60
66128;DHT22;52925;52.436;-1.952;2022-10-19T02:52:14;14.70;69.60
66128;DHT22;52925;52.436;-1.952;2022-10-19T02:53:35;14.70;69.70
66128;DHT22;52925;52.436;-1.952;2022-10-19T02:54:54;14.70;69.70
66128;DHT22;52925;52.436;-1.952;2022-10-19T02:56:15;14.70;69.60
66128;DHT22;52925;52.436;-1.952;2022-10-19T02:57:35;14.70;69.70
66128;DHT22;52925;52.436;-1.952;2022-10-19T02:58:56;14.70;69.60
66128;DHT22;52925;52.436;-1.952;2022-10-19T03:00:17;14.70;69.70
66128;DHT22;52925;52.436;-1.952;2022-10-19T03:01:37;14.70;69.70
66128;DHT22;52925;52.436;-1.952;2022-10-19T03:02:57;14.70;69.70
66128;DHT22;52925;52.436;-1.952;2022-10-19T03:04:19;14.70;69.70
66128;DHT22;52925;52.436;-1.952;2022-10-19T03:05:40;14.70;69.70
66128;DHT22;52925;52.436;-1.952;2022-10-19T03:06:59;14.70;69.70
66128;DHT22;52925;52.436;-1.952;2022-10-19T03:08:21;14.70;69.80
66128;DHT22;52925;52.436;-1.952;2022-10-19T03:09:41;14.70;69.80
66128;DHT22;52925;52.436;-1.952;2022-10-19T03:11:01;14.60;69.80
66128;DHT22;52925;52.436;-1.952;2022-10-19T03:12:22;14.60;69.80
66128;DHT22;52925;52.436;-1.952;2022-10-19T03:13:42;14.60;69.80
66128;DHT22;52925;52.436;-1.952;2022-10-19T03:15:03;14.60;69.80
66128;DHT22;52925;52.436;-1.952;2022-10-19T03:16:24;14.60;69.90
66128;DHT22;52925;52.436;-1.952;2022-10-19T03:17:44;14.70;69.90
66128;DHT22;52925;52.436;-1.952;2022-10-19T03:19:05;14.60;69.80
66128;DHT22;52925;52.436;-1.952;2022-10-19T03:20:27;14.60;69.90
66128;DHT22;52925;52.436;-1.952;2022-10-19T03:21:48;14.70;69.90
66128;DHT22;52925;52.436;-1.952;2022-10-19T03:23:09;14.60;69.90
66128;DHT22;52925;52.436;-1.952;2022-10-19T03:24:29;14.60;69.90
66128;DHT22;52925;52.436;-1.952;2022-10-19T03:25:50;14.70;70.00
66128;DHT22;52925;52.436;-1.952;2022-10-19T03:27:10;14.70;70.00
66128;DHT22;52925;52.436;-1.952;2022-10-19T03:28:31;14.60;69.90
66128;DHT22;52925;52.436;-1.952;2022-10-19T03:29:51;14.60;69.90
66128;DHT22;52925;52.436;-1.952;2022-10-19T03:31:12;14.70;70.00
66128;DHT22;52925;52.436;-1.952;2022-10-19T03:32:34;14.70;69.90
66128;DHT22;52925;52.436;-1.952;2022-10-19T03:33:55;14.70;69.90
66128;DHT22;52925;52.436;-1.952;2022-10-19T03:35:15;14.60;69.90
66128;DHT22;52925;52.436;-1.952;2022-10-19T03:36:39;14.60;69.90
66128;DHT22;52925;52.436;-1.952;2022-10-19T03:37:59;14.60;70.00
66128;DHT22;52925;52.436;-1.952;2022-10-19T03:39:21;14.60;70.00
66128;DHT22;52925;52.436;-1.952;2022-10-19T03:40:42;14.60;70.00
66128;DHT22;52925;52.436;-1.952;2022-10-19T03:42:03;14.60;70.00
66128;DHT22;52925;52.436;-1.952;2022-10-19T03:43:24;14.60;69.90
66128;DHT22;52925;52.436;-1.952;2022-10-19T03:44:44;14.60;70.00
66128;DHT22;52925;52.436;-1.952;2022-10-19T03:46:04;14.60;70.00
66128;DHT22;52925;52.436;-1.952;2022-10-19T03:47:24;14.60;70.00
66128;DHT22;52925;52.436;-1.952;2022-10-19T03:48:45;14.60;70.00
66128;DHT22;52925;52.436;-1.952;2022-10-19T03:50:05;14.60;70.00
66128;DHT22;52925;52.436;-1.952;2022-10-19T03:51:30;14.60;70.00
66128;DHT22;52925;52.436;-1.952;2022-10-19T03:52:54;14.60;70.00
66128;DHT22;52925;52.436;-1.952;2022-10-19T03:54:16;14.60;70.00
66128;DHT22;52925;52.436;-1.952;2022-10-19T03:55:35;14.60;70.10
66128;DHT22;52925;52.436;-1.952;2022-10-19T03:56:56;14.60;70.10
66128;DHT22;52925;52.436;-1.952;2022-10-19T03:58:17;14.60;70.20
66128;DHT22;52925;52.436;-1.952;2022-10-19T03:59:37;14.60;70.20
66128;DHT22;52925;52.436;-1.952;2022-10-19T04:00:57;14.60;70.10
66128;DHT22;52925;52.436;-1.952;2022-10-19T04:02:17;14.60;70.10
66128;DHT22;52925;52.436;-1.952;2022-10-19T04:03:38;14.60;70.20
66128;DHT22;52925;52.436;-1.952;2022-10-19T04:04:58;14.60;70.20
66128;DHT22;52925;52.436;-1.952;2022-10-19T04:06:22;14.60;70.20
66128;DHT22;52925;52.436;-1.952;2022-10-19T04:07:42;14.60;70.20
66128;DHT22;52925;52.436;-1.952;2022-10-19T04:09:05;14.60;70.20
66128;DHT22;52925;52.436;-1.952;2022-10-19T04:10:25;14.60;70.20
66128;DHT22;52925;52.436;-1.952;2022-10-19T04:11:46;14.60;70.20
66128;DHT22;52925;52.436;-1.952;2022-10-19T04:13:06;14.60;70.20
66128;DHT22;52925;52.436;-1.952;2022-10-19T04:14:27;14.50;70.30
66128;DHT22;52925;52.436;-1.952;2022-10-19T04:15:48;14.60;70.30
66128;DHT22;52925;52.436;-1.952;2022-10-19T04:17:09;14.50;70.30
66128;DHT22;52925;52.436;-1.952;2022-10-19T04:18:30;14.60;70.40
66128;DHT22;52925;52.436;-1.952;2022-10-19T04:19:50;14.50;70.30
66128;DHT22;52925;52.436;-1.952;2022-10-19T04:21:20;14.50;70.30
66128;DHT22;52925;52.436;-1.952;2022-10-19T04:22:40;14.60;70.30
66128;DHT22;52925;52.436;-1.952;2022-10-19T04:24:03;14.60;70.30
66128;DHT22;52925;52.436;-1.952;2022-10-19T04:25:25;14.60;70.30
66128;DHT22;52925;52.436;-1.952;2022-10-19T04:26:47;14.60;70.30
66128;DHT22;52925;52.436;-1.952;2022-10-19T04:28:08;14.60;70.30
66128;DHT22;52925;52.436;-1.952;2022-10-19T04:29:29;14.60;70.40
66128;DHT22;52925;52.436;-1.952;2022-10-19T04:30:49;14.60;70.30
66128;DHT22;52925;52.436;-1.952;2022-10-19T04:32:09;14.60;70.30
66128;DHT22;52925;52.436;-1.952;2022-10-19T04:33:31;14.60;70.40
66128;DHT22;52925;52.436;-1.952;2022-10-19T04:34:51;14.50;70.40
66128;DHT22;52925;52.436;-1.952;2022-10-19T04:36:11;14.60;70.40
66128;DHT22;52925;52.436;-1.952;2022-10-19T04:37:31;14.60;70.40
66128;DHT22;52925;52.436;-1.952;2022-10-19T04:38:52;14.60;70.40
66128;DHT22;52925;52.436;-1.952;2022-10-19T04:40:13;14.60;70.40
66128;DHT22;52925;52.436;-1.952;2022-10-19T04:41:36;14.50;70.40
66128;DHT22;52925;52.436;-1.952;2022-10-19T04:42:57;14.60;70.40
66128;DHT22;52925;52.436;-1.952;2022-10-19T04:44:17;14.60;70.40
66128;DHT22;52925;52.436;-1.952;2022-10-19T04:45:37;14.60;70.40
66128;DHT22;52925;52.436;-1.952;2022-10-19T04:46:57;14.60;70.40
66128;DHT22;52925;52.436;-1.952;2022-10-19T04:48:18;14.60;70.40
66128;DHT22;52925;52.436;-1.952;2022-10-19T04:49:38;14.60;70.50
66128;DHT22;52925;52.436;-1.952;2022-10-19T04:50:58;14.50;70.40
66128;DHT22;52925;52.436;-1.952;2022-10-19T04:52:18;14.50;70.50
66128;DHT22;52925;52.436;-1.952;2022-10-19T04:53:40;14.50;70.50
66128;DHT22;52925;52.436;-1.952;2022-10-19T04:55:01;14.50;70.50
66128;DHT22;52925;52.436;-1.952;2022-10-19T04:56:23;14.50;70.50
66128;DHT22;52925;52.436;-1.952;2022-10-19T04:57:46;14.60;70.60
66128;DHT22;52925;52.436;-1.952;2022-10-19T04:59:06;14.50;70.60
66128;DHT22;52925;52.436;-1.952;2022-10-19T05:00:27;14.50;70.60
66128;DHT22;52925;52.436;-1.952;2022-10-19T05:01:47;14.50;70.60
66128;DHT22;52925;52.436;-1.952;2022-10-19T05:03:08;14.50;70.60
66128;DHT22;52925;52.436;-1.952;2022-10-19T05:04:29;14.50;70.60
66128;DHT22;52925;52.436;-1.952;2022-10-19T05:05:49;14.50;70.60
66128;DHT22;52925;52.436;-1.952;2022-10-19T05:07:10;14.50;70.60
66128;DHT22;52925;52.436;-1.952;2022-10-19T05:08:31;14.50;70.70
66128;DHT22;52925;52.436;-1.952;2022-10-19T05:09:53;14.50;70.70
66128;DHT22;52925;52.436;-1.952;2022-10-19T05:11:14;14.50;70.70
66128;DHT22;52925;52.436;-1.952;2022-10-19T05:12:35;14.50;70.70
66128;DHT22;52925;52.436;-1.952;2022-10-19T05:13:57;14.50;70.60
66128;DHT22;52925;52.436;-1.952;2022-10-19T05:15:18;14.50;70.60
66128;DHT22;52925;52.436;-1.952;2022-10-19T05:16:38;14.50;70.60
66128;DHT22;52925;52.436;-1.952;2022-10-19T05:17:59;14.50;70.60
66128;DHT22;52925;52.436;-1.952;2022-10-19T05:19:19;14.50;70.60
66128;DHT22;52925;52.436;-1.952;2022-10-19T05:20:40;14.50;70.60
66128;DHT22;52925;52.436;-1.952;2022-10-19T05:22:00;14.50;70.60
66128;DHT22;52925;52.436;-1.952;2022-10-19T05:23:21;14.50;70.60
66128;DHT22;52925;52.436;-1.952;2022-10-19T05:24:42;14.50;70.70
66128;DHT22;52925;52.436;-1.952;2022-10-19T05:26:05;14.50;70.70
66128;DHT22;52925;52.436;-1.952;2022-10-19T05:27:26;14.50;70.70
66128;DHT22;52925;52.436;-1.952;2022-10-19T05:28:48;14.50;70.70
66128;DHT22;52925;52.436;-1.952;2022-10-19T05:30:10;14.50;70.70
66128;DHT22;52925;52.436;-1.952;2022-10-19T05:31:33;14.50;70.60
66128;DHT22;52925;52.436;-1.952;2022-10-19T05:32:53;14.50;70.70
66128;DHT22;52925;52.436;-1.952;2022-10-19T05:34:14;14.50;70.70
66128;DHT22;52925;52.436;-1.952;2022-10-19T05:35:34;14.50;70.70
66128;DHT22;52925;52.436;-1.952;2022-10-19T05:36:55;14.50;70.70
66128;DHT22;52925;52.436;-1.952;2022-10-19T05:38:16;14.50;70.70
66128;DHT22;52925;52.436;-1.952;2022-10-19T05:39:35;14.50;70.80
66128;DHT22;52925;52.436;-1.952;2022-10-19T05:40:56;14.50;70.80
66128;DHT22;52925;52.436;-1.952;2022-10-19T05:42:17;14.50;70.80
66128;DHT22;52925;52.436;-1.952;2022-10-19T05:43:39;14.50;70.70
66128;DHT22;52925;52.436;-1.952;2022-10-19T05:44:58;14.60;70.80
66128;DHT22;52925;52.436;-1.952;2022-10-19T05:46:21;14.60;70.60
66128;DHT22;52925;52.436;-1.952;2022-10-19T05:47:42;14.60;70.60
66128;DHT22;52925;52.436;-1.952;2022-10-19T05:49:02;14.60;70.70
66128;DHT22;52925;52.436;-1.952;2022-10-19T05:50:23;14.60;70.60
66128;DHT22;52925;52.436;-1.952;2022-10-19T05:51:44;14.50;70.70
66128;DHT22;52925;52.436;-1.952;2022-10-19T05:53:05;14.60;70.80
66128;DHT22;52925;52.436;-1.952;2022-10-19T05:54:25;14.50;70.70
66128;DHT22;52925;52.436;-1.952;2022-10-19T05:55:46;14.60;70.80
66128;DHT22;52925;52.436;-1.952;2022-10-19T05:57:06;14.50;70.80
66128;DHT22;52925;52.436;-1.952;2022-10-19T05:58:27;14.50;70.90
66128;DHT22;52925;52.436;-1.952;2022-10-19T05:59:49;14.50;70.90
66128;DHT22;52925;52.436;-1.952;2022-10-19T06:01:10;14.50;71.00
66128;DHT22;52925;52.436;-1.952;2022-10-19T06:02:32;14.50;71.00
66128;DHT22;52925;52.436;-1.952;2022-10-19T06:03:54;14.50;71.00
66128;DHT22;52925;52.436;-1.952;2022-10-19T06:05:15;14.50;71.00
66128;DHT22;52925;52.436;-1.952;2022-10-19T06:06:36;14.50;71.00
66128;DHT22;52925;52.436;-1.952;2022-10-19T06:07:57;14.50;70.90
66128;DHT22;52925;52.436;-1.952;2022-10-19T06:09:17;14.50;70.90
66128;DHT22;52925;52.436;-1.952;2022-10-19T06:10:39;14.50;70.90
66128;DHT22;52925;52.436;-1.952;2022-10-19T06:11:58;14.50;70.90
66128;DHT22;52925;52.436;-1.952;2022-10-19T06:13:19;14.50;70.90
66128;DHT22;52925;52.436;-1.952;2022-10-19T06:14:39;14.50;70.90
66128;DHT22;52925;52.436;-1.952;2022-10-19T06:16:01;14.50;71.00
66128;DHT22;52925;52.436;-1.952;2022-10-19T06:17:22;14.50;71.00
66128;DHT22;52925;52.436;-1.952;2022-10-19T06:18:44;14.50;71.00
66128;DHT22;52925;52.436;-1.952;2022-10-19T06:20:05;14.50;71.00
66128;DHT22;52925;52.436;-1.952;2022-10-19T06:21:29;14.50;71.00
66128;DHT22;52925;52.436;-1.952;2022-10-19T06:22:49;14.50;71.00
66128;DHT22;52925;52.436;-1.952;2022-10-19T06:24:10;14.50;71.00
66128;DHT22;52925;52.436;-1.952;2022-10-19T06:25:31;14.50;71.10
66128;DHT22;52925;52.436;-1.952;2022-10-19T06:26:51;14.50;71.10
66128;DHT22;52925;52.436;-1.952;2022-10-19T06:28:12;14.50;71.10
66128;DHT22;52925;52.436;-1.952;2022-10-19T06:29:32;14.50;71.10
66128;DHT22;52925;52.436;-1.952;2022-10-19T06:30:52;14.50;71.20
66128;DHT22;52925;52.436;-1.952;2022-10-19T06:32:12;14.50;71.10
66128;DHT22;52925;52.436;-1.952;2022-10-19T06:33:33;14.50;71.20
66128;DHT22;52925;52.436;-1.952;2022-10-19T06:34:55;14.50;71.10
66128;DHT22;52925;52.436;-1.952;2022-10-19T06:36:17;14.50;71.20
66128;DHT22;52925;52.436;-1.952;2022-10-19T06:37:38;14.50;71.10
66128;DHT22;52925;52.436;-1.952;2022-10-19T06:38:59;14.50;71.10
66128;DHT22;52925;52.436;-1.952;2022-10-19T06:40:21;14.50;71.10
66128;DHT22;52925;52.436;-1.952;2022-10-19T06:41:40;14.50;71.20
66128;DHT22;52925;52.436;-1.952;2022-10-19T06:43:11;14.50;71.20
66128;DHT22;52925;52.436;-1.952;2022-10-19T06:44:31;14.50;71.10
66128;DHT22;52925;52.436;-1.952;2022-10-19T06:45:53;14.50;71.10
66128;DHT22;52925;52.436;-1.952;2022-10-19T06:47:12;14.50;71.10
66128;DHT22;52925;52.436;-1.952;2022-10-19T06:48:33;14.50;71.20
66128;DHT22;52925;52.436;-1.952;2022-10-19T06:49:54;14.50;71.20
66128;DHT22;52925;52.436;-1.952;2022-10-19T06:51:15;14.50;71.20
66128;DHT22;52925;52.436;-1.952;2022-10-19T06:52:35;14.50;71.20
66128;DHT22;52925;52.436;-1.952;2022-10-19T06:53:57;14.50;71.10
66128;DHT22;52925;52.436;-1.952;2022-10-19T06:55:18;14.50;71.20
66128;DHT22;52925;52.436;-1.952;2022-10-19T06:56:39;14.50;71.10
66128;DHT22;52925;52.436;-1.952;2022-10-19T06:58:00;14.50;71.10
66128;DHT22;52925;52.436;-1.952;2022-10-19T06:59:20;14.50;71.20
66128;DHT22;52925;52.436;-1.952;2022-10-19T07:00:41;14.50;71.20
66128;DHT22;52925;52.436;-1.952;2022-10-19T07:02:01;14.50;71.20
66128;DHT22;52925;52.436;-1.952;2022-10-19T07:03:21;14.50;71.30
66128;DHT22;52925;52.436;-1.952;2022-10-19T07:04:42;14.50;71.30
66128;DHT22;52925;52.436;-1.952;2022-10-19T07:06:06;14.50;71.40
66128;DHT22;52925;52.436;-1.952;2022-10-19T07:07:27;14.50;71.40
66128;DHT22;52925;52.436;-1.952;2022-10-19T07:08:48;14.50;71.40
66128;DHT22;52925;52.436;-1.952;2022-10-19T07:10:09;14.50;71.30
66128;DHT22;52925;52.436;-1.952;2022-10-19T07:11:30;14.50;71.40
66128;DHT22;52925;52.436;-1.952;2022-10-19T07:12:50;14.50;71.30
66128;DHT22;52925;52.436;-1.952;2022-10-19T07:14:11;14.50;71.30
66128;DHT22;52925;52.436;-1.952;2022-10-19T07:15:32;14.50;71.30
66128;DHT22;52925;52.436;-1.952;2022-10-19T07:16:51;14.50;71.40
66128;DHT22;52925;52.436;-1.952;2022-10-19T07:18:12;14.50;71.40
66128;DHT22;52925;52.436;-1.952;2022-10-19T07:19:33;14.50;71.40
66128;DHT22;52925;52.436;-1.952;2022-10-19T07:20:55;14.50;71.50
66128;DHT22;52925;52.436;-1.952;2022-10-19T07:22:17;14.50;71.50
66128;DHT22;52925;52.436;-1.952;2022-10-19T07:23:39;14.50;71.50
66128;DHT22;52925;52.436;-1.952;2022-10-19T07:25:00;14.50;71.50
66128;DHT22;52925;52.436;-1.952;2022-10-19T07:26:23;14.50;71.50
66128;DHT22;52925;52.436;-1.952;2022-10-19T07:27:46;14.50;71.50
66128;DHT22;52925;52.436;-1.952;2022-10-19T07:29:07;14.50;71.50
66128;DHT22;52925;52.436;-1.952;2022-10-19T07:30:28;14.50;71.50
66128;DHT22;52925;52.436;-1.952;2022-10-19T07:31:48;14.50;71.50
66128;DHT22;52925;52.436;-1.952;2022-10-19T07:33:09;14.50;71.50
66128;DHT22;52925;52.436;-1.952;2022-10-19T07:34:29;14.50;71.60
66128;DHT22;52925;52.436;-1.952;2022-10-19T07:35:56;14.50;71.50
66128;DHT22;52925;52.436;-1.952;2022-10-19T07:37:19;14.50;71.50
66128;DHT22;52925;52.436;-1.952;2022-10-19T07:38:40;14.50;71.50
66128;DHT22;52925;52.436;-1.952;2022-10-19T07:40:00;14.50;71.50
66128;DHT22;52925;52.436;-1.952;2022-10-19T07:41:23;14.50;71.50
66128;DHT22;52925;52.436;-1.952;2022-10-19T07:42:44;14.50;71.50
66128;DHT22;52925;52.436;-1.952;2022-10-19T07:44:05;14.50;71.50
66128;DHT22;52925;52.436;-1.952;2022-10-19T07:45:26;14.50;71.50
66128;DHT22;52925;52.436;-1.952;2022-10-19T07:46:46;14.50;71.50
66128;DHT22;52925;52.436;-1.952;2022-10-19T07:48:07;14.50;71.60
66128;DHT22;52925;52.436;-1.952;2022-10-19T07:49:28;14.50;71.60
66128;DHT22;52925;52.436;-1.952;2022-10-19T07:50:49;14.50;71.60
66128;DHT22;52925;52.436;-1.952;2022-10-19T07:52:10;14.50;71.50
66128;DHT22;52925;52.436;-1.952;2022-10-19T07:53:32;14.50;71.50
66128;DHT22;52925;52.436;-1.952;2022-10-19T07:54:53;14.50;71.60
66128;DHT22;52925;52.436;-1.952;2022-10-19T07:56:16;14.50;71.60
66128;DHT22;52925;52.436;-1.952;2022-10-19T07:57:37;14.50;71.60
66128;DHT22;52925;52.436;-1.952;2022-10-19T07:58:59;14.50;71.60
66128;DHT22;52925;52.436;-1.952;2022-10-19T08:00:20;14.50;71.60
66128;DHT22;52925;52.436;-1.952;2022-10-19T08:01:40;14.50;71.70
66128;DHT22;52925;52.436;-1.952;2022-10-19T08:03:02;14.50;71.70
66128;DHT22;52925;52.436;-1.952;2022-10-19T08:04:23;14.50;71.70
66128;DHT22;52925;52.436;-1.952;2022-10-19T08:05:44;14.50;71.70
66128;DHT22;52925;52.436;-1.952;2022-10-19T08:07:05;14.50;71.70
66128;DHT22;52925;52.436;-1.952;2022-10-19T08:08:26;14.50;71.70
66128;DHT22;52925;52.436;-1.952;2022-10-19T08:09:48;14.50;71.70
66128;DHT22;52925;52.436;-1.952;2022-10-19T08:11:11;14.50;71.70
66128;DHT22;52925;52.436;-1.952;2022-10-19T08:12:34;14.50;71.70
66128;DHT22;52925;52.436;-1.952;2022-10-19T08:13:56;14.50;71.70
66128;DHT22;52925;52.436;-1.952;2022-10-19T08:15:17;14.50;71.80
66128;DHT22;52925;52.436;-1.952;2022-10-19T08:16:40;14.40;71.70
66128;DHT22;52925;52.436;-1.952;2022-10-19T08:18:02;14.50;71.80
66128;DHT22;52925;52.436;-1.952;2022-10-19T08:19:23;14.50;71.80
66128;DHT22;52925;52.436;-1.952;2022-10-19T08:20:44;14.50;71.80
66128;DHT22;52925;52.436;-1.952;2022-10-19T08:22:04;14.50;71.90
66128;DHT22;52925;52.436;-1.952;2022-10-19T08:23:26;14.50;71.80
66128;DHT22;52925;52.436;-1.952;2022-10-19T08:24:48;14.40;71.80
66128;DHT22;52925;52.436;-1.952;2022-10-19T08:26:09;14.50;71.90
66128;DHT22;52925;52.436;-1.952;2022-10-19T08:27:29;14.50;71.90
66128;DHT22;52925;52.436;-1.952;2022-10-19T08:28:50;14.50;71.90
66128;DHT22;52925;52.436;-1.952;2022-10-19T08:30:10;14.50;71.90
66128;DHT22;52925;52.436;-1.952;2022-10-19T08:31:31;14.50;71.80
66128;DHT22;52925;52.436;-1.952;2022-10-19T08:32:52;14.50;71.90